sensor_id;sensor_type;location;lat;lon;timestamp;pressure;altitude;pressure_sealevel;temperature;humidity
76627;BME280;65519;53.230;10.390;2024-03-23T00:55:40;100434.84;;;7.46;100.00
76627;BME280;65519;53.230;10.390;2024-03-23T00:58:05;100434.31;;;7.49;100.00
76627;BME280;65519;53.230;10.390;2024-03-23T01:00:31;100437.91;;;7.54;100.00
76627;BME280;65519;53.230;10.390;2024-03-23T01:02:56;100443.41;;;7.38;100.00
76627;BME280;65519;53.230;10.390;2024-03-23T01:05:22;100438.56;;;7.40;100.00
76627;BME280;65519;53.230;10.390;2024-03-23T01:07:47;100426.63;;;7.41;100.00
76627;BME280;65519;53.230;10.390;2024-03-23T01:10:13;100430.66;;;7.38;100.00
76627;BME280;65519;53.230;10.390;2024-03-23T01:12:38;100428.41;;;7.30;100.00
76627;BME280;65519;53.230;10.390;2024-03-23T01:15:04;100439.56;;;7.33;100.00
76627;BME280;65519;53.230;10.390;2024-03-23T01:17:29;100427.47;;;7.19;100.00
76627;BME280;65519;53.230;10.390;2024-03-23T01:19:55;100431.63;;;7.27;100.00
76627;BME280;65519;53.230;10.390;2024-03-23T01:22:20;100431.63;;;7.27;100.00
76627;BME280;65519;53.230;10.390;2024-03-23T01:24:46;100424.31;;;7.06;100.00
76627;BME280;65519;53.230;10.390;2024-03-23T01:27:11;100419.91;;;7.21;100.00
76627;BME280;65519;53.230;10.390;2024-03-23T01:29:36;100418.38;;;7.30;100.00
76627;BME280;65519;53.230;10.390;2024-03-23T01:32:02;100415.09;;;7.28;100.00
76627;BME280;65519;53.230;10.390;2024-03-23T01:34:27;100421.03;;;7.25;100.00
76627;BME280;65519;53.230;10.390;2024-03-23T01:36:53;100416.75;;;7.29;100.00
76627;BME280;65519;53.230;10.390;2024-03-23T01:39:18;100401.28;;;7.30;100.00
76627;BME280;65519;53.230;10.390;2024-03-23T01:41:44;100394.47;;;7.27;100.00
76627;BME280;65519;53.230;10.390;2024-03-23T01:44:09;100384.78;;;7.31;100.00
76627;BME280;65519;53.230;10.390;2024-03-23T01:46:37;100404.72;;;7.20;100.00
76627;BME280;65519;53.230;10.390;2024-03-23T01:49:04;100398.72;;;7.18;100.00
76627;BME280;65519;53.230;10.390;2024-03-23T01:51:30;100397.66;;;7.19;100.00
76627;BME280;65519;53.230;10.390;2024-03-23T01:53:57;100381.28;;;7.09;100.00
76627;BME280;65519;53.230;10.390;2024-03-23T01:56:22;100384.81;;;7.10;100.00
76627;BME280;65519;53.230;10.390;2024-03-23T01:58:48;100369.72;;;7.19;100.00
76627;BME280;65519;53.230;10.390;2024-03-23T02:01:14;100381.38;;;7.19;100.00
76627;BME280;65519;53.230;10.390;2024-03-23T02:03:39;100376.19;;;7.13;100.00
76627;BME280;65519;53.230;10.390;2024-03-23T02:06:04;100380.13;;;7.05;100.00
76627;BME280;65519;53.230;10.390;2024-03-23T02:08:32;100376.06;;;7.03;100.00
76627;BME280;65519;53.230;10.390;2024-03-23T02:10:58;100364.44;;;7.07;100.00
76627;BME280;65519;53.230;10.390;2024-03-23T02:13:24;100357.09;;;7.03;100.00
76627;BME280;65519;53.230;10.390;2024-03-23T02:15:49;100341.50;;;6.93;100.00
76627;BME280;65519;53.230;10.390;2024-03-23T02:18:15;100350.53;;;6.77;100.00
76627;BME280;65519;53.230;10.390;2024-03-23T02:20:40;100350.22;;;6.73;100.00
76627;BME280;65519;53.230;10.390;2024-03-23T02:23:13;100358.59;;;6.72;100.00
76627;BME280;65519;53.230;10.390;2024-03-23T02:25:38;100351.84;;;6.74;100.00
76627;BME280;65519;53.230;10.390;2024-03-23T02:28:04;100346.25;;;6.81;100.00
76627;BME280;65519;53.230;10.390;2024-03-23T02:30:29;100326.53;;;6.85;100.00
76627;BME280;65519;53.230;10.390;2024-03-23T02:32:55;100327.97;;;6.93;100.00
76627;BME280;65519;53.230;10.390;2024-03-23T02:35:21;100331.31;;;6.78;100.00
76627;BME280;65519;53.230;10.390;2024-03-23T02:37:46;100337.19;;;6.70;100.00
76627;BME280;65519;53.230;10.390;2024-03-23T02:40:14;100338.44;;;6.63;100.00
76627;BME280;65519;53.230;10.390;2024-03-23T02:42:39;100334.16;;;6.67;100.00
76627;BME280;65519;53.230;10.390;2024-03-23T02:45:05;100331.50;;;6.72;100.00
76627;BME280;65519;53.230;10.390;2024-03-23T02:47:30;100317.47;;;6.75;100.00
76627;BME280;65519;53.230;10.390;2024-03-23T02:49:56;100325.59;;;6.75;100.00
76627;BME280;65519;53.230;10.390;2024-03-23T02:52:21;100317.78;;;6.78;100.00
76627;BME280;65519;53.230;10.390;2024-03-23T02:54:47;100315.56;;;6.75;100.00
76627;BME280;65519;53.230;10.390;2024-03-23T02:57:12;100321.69;;;6.66;100.00
76627;BME280;65519;53.230;10.390;2024-03-23T02:59:38;100320.94;;;6.70;100.00
76627;BME280;65519;53.230;10.390;2024-03-23T03:02:04;100312.28;;;6.73;100.00
76627;BME280;65519;53.230;10.390;2024-03-23T03:04:30;100316.53;;;6.64;100.00
76627;BME280;65519;53.230;10.390;2024-03-23T03:06:56;100320.63;;;6.67;100.00
76627;BME280;65519;53.230;10.390;2024-03-23T03:09:22;100310.34;;;6.69;100.00
76627;BME280;65519;53.230;10.390;2024-03-23T03:11:47;100309.59;;;6.73;100.00
76627;BME280;65519;53.230;10.390;2024-03-23T03:14:13;100299.06;;;6.77;100.00
76627;BME280;65519;53.230;10.390;2024-03-23T03:16:38;100298.00;;;6.78;100.00
76627;BME280;65519;53.230;10.390;2024-03-23T03:19:04;100305.88;;;6.57;100.00
76627;BME280;65519;53.230;10.390;2024-03-23T03:21:29;100301.91;;;6.43;100.00
76627;BME280;65519;53.230;10.390;2024-03-23T03:23:55;100299.94;;;6.39;100.00
76627;BME280;65519;53.230;10.390;2024-03-23T03:26:22;100294.28;;;6.40;100.00
76627;BME280;65519;53.230;10.390;2024-03-23T03:28:47;100293.53;;;6.45;100.00
76627;BME280;65519;53.230;10.390;2024-03-23T03:31:15;100284.59;;;6.44;100.00
76627;BME280;65519;53.230;10.390;2024-03-23T03:33:40;100278.59;;;6.42;100.00
76627;BME280;65519;53.230;10.390;2024-03-23T03:36:06;100284.03;;;6.42;100.00
76627;BME280;65519;53.230;10.390;2024-03-23T03:38:31;100276.91;;;6.36;100.00
76627;BME280;65519;53.230;10.390;2024-03-23T03:40:57;100278.00;;;6.35;100.00
76627;BME280;65519;53.230;10.390;2024-03-23T03:43:24;100274.72;;;6.33;100.00
76627;BME280;65519;53.230;10.390;2024-03-23T03:45:57;100271.38;;;6.26;100.00
76627;BME280;65519;53.230;10.390;2024-03-23T03:48:23;100272.69;;;6.23;100.00
76627;BME280;65519;53.230;10.390;2024-03-23T03:50:49;100269.09;;;6.18;100.00
76627;BME280;65519;53.230;10.390;2024-03-23T03:53:14;100268.25;;;6.17;100.00
76627;BME280;65519;53.230;10.390;2024-03-23T03:55:40;100272.56;;;6.13;100.00
76627;BME280;65519;53.230;10.390;2024-03-23T03:58:05;100263.66;;;6.18;100.00
76627;BME280;65519;53.230;10.390;2024-03-23T04:00:31;100255.00;;;6.16;100.00
76627;BME280;65519;53.230;10.390;2024-03-23T04:02:56;100265.25;;;6.14;100.00
76627;BME280;65519;53.230;10.390;2024-03-23T04:05:22;100263.38;;;6.14;100.00
76627;BME280;65519;53.230;10.390;2024-03-23T04:07:48;100257.38;;;6.12;100.00
76627;BME280;65519;53.230;10.390;2024-03-23T04:10:14;100257.63;;;6.11;100.00
76627;BME280;65519;53.230;10.390;2024-03-23T04:12:40;100257.63;;;6.11;100.00
76627;BME280;65519;53.230;10.390;2024-03-23T04:15:06;100247.44;;;6.18;100.00
76627;BME280;65519;53.230;10.390;2024-03-23T04:17:32;100251.72;;;6.14;100.00
76627;BME280;65519;53.230;10.390;2024-03-23T04:19:59;100248.38;;;6.07;100.00
76627;BME280;65519;53.230;10.390;2024-03-23T04:22:25;100244.59;;;6.08;100.00
76627;BME280;65519;53.230;10.390;2024-03-23T04:24:53;100245.59;;;6.02;100.00
76627;BME280;65519;53.230;10.390;2024-03-23T04:27:19;100243.97;;;6.01;100.00
76627;BME280;65519;53.230;10.390;2024-03-23T04:29:48;100245.94;;;6.05;100.00
76627;BME280;65519;53.230;10.390;2024-03-23T04:32:14;100240.81;;;6.09;100.00
76627;BME280;65519;53.230;10.390;2024-03-23T04:34:40;100240.19;;;6.02;100.00
76627;BME280;65519;53.230;10.390;2024-03-23T04:37:05;100245.16;;;6.10;100.00
76627;BME280;65519;53.230;10.390;2024-03-23T04:39:31;100232.09;;;6.23;100.00
76627;BME280;65519;53.230;10.390;2024-03-23T04:41:56;100229.13;;;6.25;100.00
76627;BME280;65519;53.230;10.390;2024-03-23T04:44:21;100229.63;;;6.22;100.00
76627;BME280;65519;53.230;10.390;2024-03-23T04:46:47;100236.88;;;6.16;100.00
76627;BME280;65519;53.230;10.390;2024-03-23T04:49:12;100231.97;;;6.13;100.00
76627;BME280;65519;53.230;10.390;2024-03-23T04:51:38;100227.38;;;6.14;100.00
76627;BME280;65519;53.230;10.390;2024-03-23T04:54:04;100244.59;;;6.08;100.00
76627;BME280;65519;53.230;10.390;2024-03-23T04:56:30;100238.56;;;6.01;100.00
76627;BME280;65519;53.230;10.390;2024-03-23T04:58:56;100233.88;;;5.96;100.00
76627;BME280;65519;53.230;10.390;2024-03-23T05:01:26;100226.09;;;6.00;100.00
76627;BME280;65519;53.230;10.390;2024-03-23T05:03:52;100216.09;;;6.00;100.00
76627;BME280;65519;53.230;10.390;2024-03-23T05:06:18;100217.34;;;5.93;100.00
76627;BME280;65519;53.230;10.390;2024-03-23T05:08:44;100224.94;;;5.96;100.00
76627;BME280;65519;53.230;10.390;2024-03-23T05:11:11;100235.22;;;5.94;100.00
76627;BME280;65519;53.230;10.390;2024-03-23T05:13:36;100231.69;;;5.93;100.00
76627;BME280;65519;53.230;10.390;2024-03-23T05:16:01;100235.97;;;5.89;100.00
76627;BME280;65519;53.230;10.390;2024-03-23T05:18:27;100226.81;;;5.95;100.00
76627;BME280;65519;53.230;10.390;2024-03-23T05:20:57;100217.72;;;6.01;100.00
76627;BME280;65519;53.230;10.390;2024-03-23T05:23:24;100224.28;;;6.05;100.00
76627;BME280;65519;53.230;10.390;2024-03-23T05:25:49;100223.97;;;6.02;100.00
76627;BME280;65519;53.230;10.390;2024-03-23T05:28:15;100220.47;;;6.06;100.00
76627;BME280;65519;53.230;10.390;2024-03-23T05:30:40;100220.00;;;6.09;100.00
76627;BME280;65519;53.230;10.390;2024-03-23T05:33:06;100225.66;;;6.08;100.00
76627;BME280;65519;53.230;10.390;2024-03-23T05:35:31;100219.13;;;6.04;100.00
76627;BME280;65519;53.230;10.390;2024-03-23T05:37:57;100208.69;;;6.12;100.00
76627;BME280;65519;53.230;10.390;2024-03-23T05:40:25;100200.81;;;6.11;100.00
76627;BME280;65519;53.230;10.390;2024-03-23T05:42:51;100205.72;;;6.14;100.00
76627;BME280;65519;53.230;10.390;2024-03-23T05:45:19;100194.69;;;6.20;100.00
76627;BME280;65519;53.230;10.390;2024-03-23T05:47:45;100189.47;;;6.14;100.00
76627;BME280;65519;53.230;10.390;2024-03-23T05:50:10;100185.19;;;6.18;100.00
76627;BME280;65519;53.230;10.390;2024-03-23T05:52:38;100188.41;;;6.15;100.00
76627;BME280;65519;53.230;10.390;2024-03-23T05:55:05;100181.25;;;6.04;100.00
76627;BME280;65519;53.230;10.390;2024-03-23T05:57:30;100181.75;;;6.01;100.00
76627;BME280;65519;53.230;10.390;2024-03-23T05:59:56;100179.53;;;5.98;100.00
76627;BME280;65519;53.230;10.390;2024-03-23T06:02:22;100192.56;;;6.01;100.00
76627;BME280;65519;53.230;10.390;2024-03-23T06:04:48;100180.91;;;6.00;100.00
76627;BME280;65519;53.230;10.390;2024-03-23T06:07:13;100186.09;;;6.02;100.00
76627;BME280;65519;53.230;10.390;2024-03-23T06:09:41;100167.38;;;6.00;100.00
76627;BME280;65519;53.230;10.390;2024-03-23T06:12:07;100167.06;;;5.97;100.00
76627;BME280;65519;53.230;10.390;2024-03-23T06:14:32;100151.28;;;5.89;100.00
76627;BME280;65519;53.230;10.390;2024-03-23T06:16:58;100159.63;;;6.09;100.00
76627;BME280;65519;53.230;10.390;2024-03-23T06:19:25;100162.56;;;6.02;100.00
76627;BME280;65519;53.230;10.390;2024-03-23T06:21:53;100168.56;;;6.09;100.00
76627;BME280;65519;53.230;10.390;2024-03-23T06:24:21;100164.22;;;6.08;100.00
76627;BME280;65519;53.230;10.390;2024-03-23T06:26:46;100165.38;;;6.12;100.00
76627;BME280;65519;53.230;10.390;2024-03-23T06:29:12;100160.47;;;6.09;100.00
76627;BME280;65519;53.230;10.390;2024-03-23T06:31:37;100157.84;;;6.14;100.00
76627;BME280;65519;53.230;10.390;2024-03-23T06:34:03;100159.75;;;6.19;100.00
76627;BME280;65519;53.230;10.390;2024-03-23T06:36:28;100160.34;;;6.21;100.00
76627;BME280;65519;53.230;10.390;2024-03-23T06:38:55;100168.53;;;6.26;100.00
76627;BME280;65519;53.230;10.390;2024-03-23T06:41:21;100172.59;;;6.29;100.00
76627;BME280;65519;53.230;10.390;2024-03-23T06:43:46;100163.47;;;6.35;100.00
76627;BME280;65519;53.230;10.390;2024-03-23T06:46:12;100159.88;;;6.29;100.00
76627;BME280;65519;53.230;10.390;2024-03-23T06:48:37;100168.44;;;6.21;100.00
76627;BME280;65519;53.230;10.390;2024-03-23T06:51:03;100169.84;;;6.23;100.00
76627;BME280;65519;53.230;10.390;2024-03-23T06:53:29;100169.06;;;6.28;100.00
76627;BME280;65519;53.230;10.390;2024-03-23T06:55:54;100168.56;;;6.31;100.00
76627;BME280;65519;53.230;10.390;2024-03-23T06:58:21;100165.69;;;6.38;100.00
76627;BME280;65519;53.230;10.390;2024-03-23T07:00:48;100164.06;;;6.42;100.00
76627;BME280;65519;53.230;10.390;2024-03-23T07:03:14;100157.91;;;6.46;100.00
76627;BME280;65519;53.230;10.390;2024-03-23T07:05:40;100159.66;;;6.57;100.00
76627;BME280;65519;53.230;10.390;2024-03-23T07:08:05;100175.13;;;6.62;100.00
76627;BME280;65519;53.230;10.390;2024-03-23T07:10:31;100164.84;;;6.64;100.00
76627;BME280;65519;53.230;10.390;2024-03-23T07:12:56;100156.25;;;6.72;100.00
76627;BME280;65519;53.230;10.390;2024-03-23T07:15:22;100151.16;;;6.76;100.00
76627;BME280;65519;53.230;10.390;2024-03-23T07:17:47;100151.72;;;6.78;100.00
76627;BME280;65519;53.230;10.390;2024-03-23T07:20:13;100152.31;;;6.85;100.00
76627;BME280;65519;53.230;10.390;2024-03-23T07:22:39;100142.03;;;6.87;100.00
76627;BME280;65519;53.230;10.390;2024-03-23T07:25:05;100140.50;;;6.96;100.00
76627;BME280;65519;53.230;10.390;2024-03-23T07:27:31;100136.75;;;7.02;100.00
76627;BME280;65519;53.230;10.390;2024-03-23T07:29:57;100138.94;;;7.05;100.00
76627;BME280;65519;53.230;10.390;2024-03-23T07:32:22;100151.97;;;7.08;100.00
76627;BME280;65519;53.230;10.390;2024-03-23T07:34:48;100149.50;;;7.07;100.00
76627;BME280;65519;53.230;10.390;2024-03-23T07:37:13;100154.00;;;7.23;100.00
76627;BME280;65519;53.230;10.390;2024-03-23T07:39:39;100149.16;;;7.30;100.00
76627;BME280;65519;53.230;10.390;2024-03-23T07:42:05;100146.19;;;7.37;100.00
76627;BME280;65519;53.230;10.390;2024-03-23T07:44:31;100141.84;;;7.36;100.00
76627;BME280;65519;53.230;10.390;2024-03-23T07:46:56;100149.47;;;7.39;100.00
76627;BME280;65519;53.230;10.390;2024-03-23T07:49:22;100143.56;;;7.47;100.00
76627;BME280;65519;53.230;10.390;2024-03-23T07:51:47;100146.75;;;7.33;100.00
76627;BME280;65519;53.230;10.390;2024-03-23T07:54:13;100135.34;;;7.31;100.00
76627;BME280;65519;53.230;10.390;2024-03-23T07:56:38;100134.66;;;7.14;100.00
76627;BME280;65519;53.230;10.390;2024-03-23T07:59:03;100139.63;;;7.27;100.00
76627;BME280;65519;53.230;10.390;2024-03-23T08:01:29;100132.81;;;7.20;100.00
76627;BME280;65519;53.230;10.390;2024-03-23T08:03:55;100132.50;;;7.16;100.00
76627;BME280;65519;53.230;10.390;2024-03-23T08:06:20;100126.94;;;7.33;100.00
76627;BME280;65519;53.230;10.390;2024-03-23T08:08:50;100128.78;;;7.27;100.00
76627;BME280;65519;53.230;10.390;2024-03-23T08:11:16;100130.03;;;7.52;100.00
76627;BME280;65519;53.230;10.390;2024-03-23T08:13:42;100125.38;;;7.47;100.00
76627;BME280;65519;53.230;10.390;2024-03-23T08:16:10;100123.28;;;7.54;100.00
76627;BME280;65519;53.230;10.390;2024-03-23T08:18:35;100129.28;;;7.61;100.00
76627;BME280;65519;53.230;10.390;2024-03-23T08:23:31;100117.16;;;7.79;100.00
76627;BME280;65519;53.230;10.390;2024-03-23T08:25:59;100123.13;;;7.81;100.00
76627;BME280;65519;53.230;10.390;2024-03-23T08:28:26;100110.16;;;7.93;100.00
76627;BME280;65519;53.230;10.390;2024-03-23T08:30:52;100112.59;;;7.95;100.00
76627;BME280;65519;53.230;10.390;2024-03-23T08:33:18;100107.44;;;7.93;100.00
76627;BME280;65519;53.230;10.390;2024-03-23T08:35:56;100110.72;;;7.95;100.00
76627;BME280;65519;53.230;10.390;2024-03-23T08:38:22;100103.16;;;8.13;100.00
76627;BME280;65519;53.230;10.390;2024-03-23T08:40:48;100101.56;;;8.27;100.00
76627;BME280;65519;53.230;10.390;2024-03-23T08:43:13;100101.91;;;8.40;100.00
76627;BME280;65519;53.230;10.390;2024-03-23T08:45:39;100101.66;;;8.52;100.00
76627;BME280;65519;53.230;10.390;2024-03-23T08:48:04;100095.16;;;8.53;100.00
76627;BME280;65519;53.230;10.390;2024-03-23T08:50:30;100098.69;;;8.64;100.00
76627;BME280;65519;53.230;10.390;2024-03-23T08:52:55;100091.34;;;8.69;100.00
76627;BME280;65519;53.230;10.390;2024-03-23T08:55:21;100099.50;;;8.85;100.00
76627;BME280;65519;53.230;10.390;2024-03-23T08:57:46;100101.66;;;9.03;100.00
76627;BME280;65519;53.230;10.390;2024-03-23T09:00:12;100102.19;;;9.10;100.00
76627;BME280;65519;53.230;10.390;2024-03-23T09:02:38;100097.84;;;9.29;100.00
76627;BME280;65519;53.230;10.390;2024-03-23T09:05:03;100098.59;;;9.45;100.00
76627;BME280;65519;53.230;10.390;2024-03-23T09:07:30;100094.53;;;9.47;100.00
76627;BME280;65519;53.230;10.390;2024-03-23T09:09:56;100095.31;;;9.58;100.00
76627;BME280;65519;53.230;10.390;2024-03-23T09:12:21;100093.69;;;9.62;100.00
76627;BME280;65519;53.230;10.390;2024-03-23T09:14:47;100093.06;;;9.75;100.00
76627;BME280;65519;53.230;10.390;2024-03-23T09:17:12;100096.53;;;9.91;100.00
76627;BME280;65519;53.230;10.390;2024-03-23T09:19:38;100107.94;;;9.98;100.00
76627;BME280;65519;53.230;10.390;2024-03-23T09:22:05;100088.06;;;9.98;100.00
76627;BME280;65519;53.230;10.390;2024-03-23T09:24:30;100096.28;;;9.87;100.00
76627;BME280;65519;53.230;10.390;2024-03-23T09:26:57;100109.19;;;9.62;100.00
76627;BME280;65519;53.230;10.390;2024-03-23T09:29:22;100108.16;;;9.27;100.00
76627;BME280;65519;53.230;10.390;2024-03-23T09:31:48;100115.78;;;9.20;100.00
76627;BME280;65519;53.230;10.390;2024-03-23T09:34:13;100093.94;;;9.56;100.00
76627;BME280;65519;53.230;10.390;2024-03-23T09:36:39;100097.13;;;9.83;100.00
76627;BME280;65519;53.230;10.390;2024-03-23T09:39:06;100098.22;;;9.82;100.00
76627;BME280;65519;53.230;10.390;2024-03-23T09:41:31;100088.59;;;10.00;100.00
76627;BME280;65519;53.230;10.390;2024-03-23T09:43:57;100084.69;;;10.26;100.00
76627;BME280;65519;53.230;10.390;2024-03-23T09:46:22;100088.16;;;10.37;100.00
76627;BME280;65519;53.230;10.390;2024-03-23T09:48:48;100083.22;;;10.44;97.13
76627;BME280;65519;53.230;10.390;2024-03-23T09:51:14;100082.31;;;10.58;92.22
76627;BME280;65519;53.230;10.390;2024-03-23T09:53:39;100077.94;;;10.57;97.98
76627;BME280;65519;53.230;10.390;2024-03-23T09:56:05;100071.47;;;10.48;100.00
76627;BME280;65519;53.230;10.390;2024-03-23T09:58:30;100077.28;;;10.37;100.00
76627;BME280;65519;53.230;10.390;2024-03-23T10:00:57;100073.53;;;10.22;100.00
76627;BME280;65519;53.230;10.390;2024-03-23T10:03:23;100060.56;;;9.99;100.00
76627;BME280;65519;53.230;10.390;2024-03-23T10:06:00;100059.91;;;10.22;100.00
76627;BME280;65519;53.230;10.390;2024-03-23T10:08:25;100065.22;;;10.43;100.00
76627;BME280;65519;53.230;10.390;2024-03-23T10:10:51;100062.41;;;10.58;100.00
76627;BME280;65519;53.230;10.390;2024-03-23T10:13:26;100066.16;;;10.67;100.00
76627;BME280;65519;53.230;10.390;2024-03-23T10:15:59;100058.72;;;10.73;93.62
76627;BME280;65519;53.230;10.390;2024-03-23T10:18:25;100065.31;;;11.01;91.21
76627;BME280;65519;53.230;10.390;2024-03-23T10:21:11;100068.75;;;11.11;89.97
76627;BME280;65519;53.230;10.390;2024-03-23T10:23:44;100060.50;;;11.45;93.39
76627;BME280;65519;53.230;10.390;2024-03-23T10:26:24;100060.59;;;10.43;99.11
76627;BME280;65519;53.230;10.390;2024-03-23T10:29:00;100056.84;;;10.34;100.00
76627;BME280;65519;53.230;10.390;2024-03-23T10:31:33;100064.75;;;10.36;100.00
76627;BME280;65519;53.230;10.390;2024-03-23T10:34:01;100058.84;;;10.13;97.59
76627;BME280;65519;53.230;10.390;2024-03-23T10:36:26;100057.31;;;9.97;89.04
76627;BME280;65519;53.230;10.390;2024-03-23T10:38:53;100062.22;;;9.95;78.21
76627;BME280;65519;53.230;10.390;2024-03-23T10:41:19;100055.22;;;10.33;76.11
76627;BME280;65519;53.230;10.390;2024-03-23T10:43:46;100047.34;;;10.66;73.38
76627;BME280;65519;53.230;10.390;2024-03-23T10:46:12;100043.81;;;10.94;72.44
76627;BME280;65519;53.230;10.390;2024-03-23T10:48:38;100049.59;;;11.16;70.54
76627;BME280;65519;53.230;10.390;2024-03-23T10:51:06;100038.84;;;11.25;64.70
76627;BME280;65519;53.230;10.390;2024-03-23T10:53:33;100044.72;;;10.84;71.50
76627;BME280;65519;53.230;10.390;2024-03-23T10:55:59;100046.13;;;10.48;73.07
76627;BME280;65519;53.230;10.390;2024-03-23T10:58:37;100029.91;;;10.28;79.89
76627;BME280;65519;53.230;10.390;2024-03-23T11:01:03;100034.84;;;10.26;83.28
76627;BME280;65519;53.230;10.390;2024-03-23T11:05:59;100040.03;;;10.22;82.35
76627;BME280;65519;53.230;10.390;2024-03-23T11:08:38;100033.09;;;10.74;80.99
76627;BME280;65519;53.230;10.390;2024-03-23T11:11:16;100027.56;;;11.13;76.89
76627;BME280;65519;53.230;10.390;2024-03-23T11:13:43;100026.13;;;11.44;72.31
76627;BME280;65519;53.230;10.390;2024-03-23T11:16:28;100025.28;;;11.67;66.74
76627;BME280;65519;53.230;10.390;2024-03-23T11:19:35;100025.63;;;11.85;61.76
76627;BME280;65519;53.230;10.390;2024-03-23T11:22:04;100020.16;;;11.85;59.30
76627;BME280;65519;53.230;10.390;2024-03-23T11:24:31;100022.03;;;11.65;58.95
76627;BME280;65519;53.230;10.390;2024-03-23T11:26:56;100018.94;;;11.48;59.39
76627;BME280;65519;53.230;10.390;2024-03-23T11:29:25;100025.28;;;11.20;60.58
76627;BME280;65519;53.230;10.390;2024-03-23T11:31:52;100013.53;;;10.95;61.46
76627;BME280;65519;53.230;10.390;2024-03-23T11:34:19;100015.25;;;10.57;65.76
76627;BME280;65519;53.230;10.390;2024-03-23T11:36:46;100017.72;;;10.54;70.01
76627;BME280;65519;53.230;10.390;2024-03-23T11:39:17;100026.91;;;10.63;73.86
76627;BME280;65519;53.230;10.390;2024-03-23T11:41:53;100016.81;;;10.30;74.23
76627;BME280;65519;53.230;10.390;2024-03-23T11:44:20;100030.25;;;10.16;83.57
76627;BME280;65519;53.230;10.390;2024-03-23T11:46:46;100023.53;;;10.03;88.18
76627;BME280;65519;53.230;10.390;2024-03-23T11:49:25;100027.13;;;9.88;97.97
76627;BME280;65519;53.230;10.390;2024-03-23T11:51:52;100043.13;;;9.31;100.00
76627;BME280;65519;53.230;10.390;2024-03-23T11:54:25;100041.00;;;9.28;100.00
76627;BME280;65519;53.230;10.390;2024-03-23T11:56:57;100035.56;;;9.23;100.00
76627;BME280;65519;53.230;10.390;2024-03-23T11:59:37;100029.41;;;9.66;100.00
76627;BME280;65519;53.230;10.390;2024-03-23T12:02:07;100026.19;;;10.13;100.00
76627;BME280;65519;53.230;10.390;2024-03-23T12:04:33;100019.53;;;10.30;100.00
76627;BME280;65519;53.230;10.390;2024-03-23T12:07:11;100016.75;;;10.40;99.46
76627;BME280;65519;53.230;10.390;2024-03-23T12:09:36;100012.28;;;10.83;96.43
76627;BME280;65519;53.230;10.390;2024-03-23T12:12:15;100010.88;;;10.90;92.03
76627;BME280;65519;53.230;10.390;2024-03-23T12:14:45;100011.81;;;10.03;96.27
76627;BME280;65519;53.230;10.390;2024-03-23T12:17:14;100015.97;;;9.90;100.00
76627;BME280;65519;53.230;10.390;2024-03-23T12:19:41;100011.19;;;10.16;100.00
76627;BME280;65519;53.230;10.390;2024-03-23T12:22:08;100006.59;;;10.06;100.00
76627;BME280;65519;53.230;10.390;2024-03-23T12:24:34;99997.41;;;9.97;100.00
76627;BME280;65519;53.230;10.390;2024-03-23T12:27:04;100000.03;;;10.12;100.00
76627;BME280;65519;53.230;10.390;2024-03-23T12:29:32;99999.44;;;10.26;100.00
76627;BME280;65519;53.230;10.390;2024-03-23T12:32:02;100000.91;;;10.47;100.00
76627;BME280;65519;53.230;10.390;2024-03-23T12:34:28;99998.81;;;9.89;100.00
76627;BME280;65519;53.230;10.390;2024-03-23T12:36:54;99992.53;;;9.94;100.00
76627;BME280;65519;53.230;10.390;2024-03-23T12:39:19;99993.16;;;9.81;100.00
76627;BME280;65519;53.230;10.390;2024-03-23T12:41:51;99984.78;;;10.50;100.00
76627;BME280;65519;53.230;10.390;2024-03-23T12:44:18;99990.44;;;10.59;100.00
76627;BME280;65519;53.230;10.390;2024-03-23T12:46:44;99978.66;;;10.64;100.00
76627;BME280;65519;53.230;10.390;2024-03-23T12:49:10;99976.44;;;11.23;98.15
76627;BME280;65519;53.230;10.390;2024-03-23T12:51:36;99975.09;;;11.63;75.04
76627;BME280;65519;53.230;10.390;2024-03-23T12:54:02;99966.38;;;11.61;69.62
76627;BME280;65519;53.230;10.390;2024-03-23T12:56:27;99976.06;;;11.30;67.75
76627;BME280;65519;53.230;10.390;2024-03-23T12:58:56;99974.56;;;11.61;70.19
76627;BME280;65519;53.230;10.390;2024-03-23T13:01:25;99972.13;;;11.84;71.66
76627;BME280;65519;53.230;10.390;2024-03-23T13:03:51;99981.66;;;11.62;69.10
76627;BME280;65519;53.230;10.390;2024-03-23T13:06:19;99975.38;;;11.62;67.04
76627;BME280;65519;53.230;10.390;2024-03-23T13:08:45;99979.19;;;11.85;62.35
76627;BME280;65519;53.230;10.390;2024-03-23T13:11:11;99976.63;;;11.93;63.31
76627;BME280;65519;53.230;10.390;2024-03-23T13:13:37;99984.75;;;11.56;63.83
76627;BME280;65519;53.230;10.390;2024-03-23T13:16:04;99997.75;;;11.16;65.73
76627;BME280;65519;53.230;10.390;2024-03-23T13:18:30;100003.97;;;10.69;71.09
76627;BME280;65519;53.230;10.390;2024-03-23T13:20:56;100033.66;;;9.87;100.00
76627;BME280;65519;53.230;10.390;2024-03-23T13:23:21;100050.59;;;8.85;100.00
76627;BME280;65519;53.230;10.390;2024-03-23T13:25:55;100066.09;;;7.71;100.00
76627;BME280;65519;53.230;10.390;2024-03-23T13:28:23;100083.41;;;7.60;100.00
76627;BME280;65519;53.230;10.390;2024-03-23T13:30:53;100067.16;;;7.60;100.00
76627;BME280;65519;53.230;10.390;2024-03-23T13:33:18;100069.22;;;7.38;100.00
76627;BME280;65519;53.230;10.390;2024-03-23T13:35:54;100077.97;;;7.03;100.00
76627;BME280;65519;53.230;10.390;2024-03-23T13:38:23;100072.06;;;7.16;100.00